Tindal Airport
YPTN : now visible

Airfield :











YOU CAN JOIN US ON...

 
LOGIN :

Register | Disclaimer

   EN    FR    IT 

 









Legend :    VFR   Marginal VFR   IFR   Intensive IFR   Very Intensive IFR
Visi :
Ceiling :
>= 8 km
>= 3000ft
5 to 8 km
1000 to 3000 ft
1500m to 5 km
500 to 1000 ft
800 to 1500m
200 to 500 ft
< 800m
< 200 ft
Symbols :   Thunderstorms  Fog  Heavy snow  Heavy precipitations  Wind > 20 kt






- Airport Elevation : 443 ft
- IATA code : KTR


YPTN - Tindal

CURRENT METAR :
  • 242330Z 06006KT CAVOK 25/18 Q1014

EXPIRED METARs :
  • 242300Z 07005KT CAVOK 22/17 Q1014
  • 242230Z AUTO 09005KT 9999 // NCD 21/17 Q1014 RF00.0/000.0
  • 242200Z AUTO 13005KT 9999 // NCD 19/16 Q1014 RF00.0/000.0
  • 242130Z AUTO 12004KT 9999 // NCD 19/15 Q1013 RF00.0/000.0
  • 242100Z AUTO 11005KT 9999 // NCD 19/15 Q1013 RF00.0/000.0
  • 242030Z AUTO 11006KT 9999 // NCD 20/15 Q1013 RF00.0/000.0
  • 242000Z AUTO 13005KT 9999 // NCD 19/14 Q1012 RF00.0/000.0
  • 241930Z AUTO 15004KT 9999 // OVC065 20/14 Q1012 RF00.0/000.0

TAF AMD TAF YPTN
Valid from the 25 at 00:00 until the 26 at 00:00 UTC


250008Z 2500/2600 09005KT 7000 HZ NSC
BECMG 2500/2501 06009KT 9999 NSW BKN050
FM250600 12006KT 9999 BKN050
YBBB FIR / Oceania



MET'MAP, your aeronautical weather chart ! - Copyright ORBIFLY December 2007 - Disclaimer

ORBIFLY MET'MAP TEAM :

Programming & Development : Alexandra Zaïnal
Original concept : Baudouin d'Aumeries
Technical & hardware support : Manuel Goepfert
Assistance : Marc-Olivier Méhu




SOURCES & CREDITS :

   NOAA       Earth
Advisory